sensor_id;sensor_type;location;lat;lon;timestamp;P1;durP1;ratioP1;P2;durP2;ratioP2
3571;SDS011;7958;53.024;12.970;2023-05-16T00:00:49;10.03;;;8.27;;
3571;SDS011;7958;53.024;12.970;2023-05-16T00:03:18;10.87;;;7.70;;
3571;SDS011;7958;53.024;12.970;2023-05-16T00:05:45;9.30;;;7.83;;
3571;SDS011;7958;53.024;12.970;2023-05-16T00:08:14;7.50;;;6.80;;
3571;SDS011;7958;53.024;12.970;2023-05-16T00:10:42;8.43;;;7.63;;
3571;SDS011;7958;53.024;12.970;2023-05-16T00:13:08;9.80;;;7.90;;
3571;SDS011;7958;53.024;12.970;2023-05-16T00:15:37;13.07;;;7.53;;
3571;SDS011;7958;53.024;12.970;2023-05-16T00:18:07;8.87;;;7.80;;
3571;SDS011;7958;53.024;12.970;2023-05-16T00:20:38;8.10;;;7.20;;
3571;SDS011;7958;53.024;12.970;2023-05-16T00:23:05;7.80;;;7.10;;
3571;SDS011;7958;53.024;12.970;2023-05-16T00:25:32;9.67;;;7.43;;
3571;SDS011;7958;53.024;12.970;2023-05-16T00:28:01;7.23;;;6.53;;
3571;SDS011;7958;53.024;12.970;2023-05-16T00:30:28;8.07;;;7.13;;
3571;SDS011;7958;53.024;12.970;2023-05-16T00:32:57;7.67;;;6.97;;
3571;SDS011;7958;53.024;12.970;2023-05-16T00:35:24;11.17;;;7.07;;
3571;SDS011;7958;53.024;12.970;2023-05-16T00:37:51;7.00;;;6.37;;
3571;SDS011;7958;53.024;12.970;2023-05-16T00:40:20;8.57;;;7.40;;
3571;SDS011;7958;53.024;12.970;2023-05-16T00:42:49;13.23;;;6.70;;
3571;SDS011;7958;53.024;12.970;2023-05-16T00:45:16;7.67;;;6.87;;
3571;SDS011;7958;53.024;12.970;2023-05-16T00:47:43;8.47;;;7.53;;
3571;SDS011;7958;53.024;12.970;2023-05-16T00:50:11;7.83;;;7.10;;
3571;SDS011;7958;53.024;12.970;2023-05-16T00:52:38;7.97;;;7.17;;
3571;SDS011;7958;53.024;12.970;2023-05-16T00:55:07;8.23;;;7.43;;
3571;SDS011;7958;53.024;12.970;2023-05-16T00:57:35;8.20;;;7.40;;
3571;SDS011;7958;53.024;12.970;2023-05-16T01:00:02;8.37;;;6.73;;
3571;SDS011;7958;53.024;12.970;2023-05-16T01:02:30;7.43;;;6.73;;
3571;SDS011;7958;53.024;12.970;2023-05-16T01:04:57;8.27;;;7.47;;
3571;SDS011;7958;53.024;12.970;2023-05-16T01:07:25;11.13;;;7.70;;
3571;SDS011;7958;53.024;12.970;2023-05-16T01:09:52;15.37;;;8.53;;
3571;SDS011;7958;53.024;12.970;2023-05-16T01:12:20;11.87;;;8.47;;
3571;SDS011;7958;53.024;12.970;2023-05-16T01:14:50;10.60;;;9.20;;
3571;SDS011;7958;53.024;12.970;2023-05-16T01:17:22;9.73;;;8.73;;
3571;SDS011;7958;53.024;12.970;2023-05-16T01:19:59;9.50;;;8.60;;
3571;SDS011;7958;53.024;12.970;2023-05-16T01:22:35;10.43;;;8.80;;
3571;SDS011;7958;53.024;12.970;2023-05-16T01:25:10;11.87;;;9.13;;
3571;SDS011;7958;53.024;12.970;2023-05-16T01:27:48;10.70;;;9.13;;
3571;SDS011;7958;53.024;12.970;2023-05-16T01:30:17;13.23;;;10.23;;
3571;SDS011;7958;53.024;12.970;2023-05-16T01:32:45;14.93;;;10.10;;
3571;SDS011;7958;53.024;12.970;2023-05-16T01:35:12;10.23;;;9.27;;
3571;SDS011;7958;53.024;12.970;2023-05-16T01:37:44;11.40;;;10.27;;
3571;SDS011;7958;53.024;12.970;2023-05-16T01:40:15;10.97;;;9.87;;
3571;SDS011;7958;53.024;12.970;2023-05-16T01:42:45;10.27;;;8.90;;
3571;SDS011;7958;53.024;12.970;2023-05-16T01:45:16;14.27;;;9.63;;
3571;SDS011;7958;53.024;12.970;2023-05-16T01:47:46;14.10;;;9.37;;
3571;SDS011;7958;53.024;12.970;2023-05-16T01:50:16;11.67;;;9.30;;
3571;SDS011;7958;53.024;12.970;2023-05-16T01:52:44;11.37;;;9.00;;
3571;SDS011;7958;53.024;12.970;2023-05-16T01:55:13;10.53;;;9.00;;
3571;SDS011;7958;53.024;12.970;2023-05-16T01:57:44;11.10;;;9.60;;
3571;SDS011;7958;53.024;12.970;2023-05-16T02:00:13;11.23;;;8.20;;
3571;SDS011;7958;53.024;12.970;2023-05-16T02:02:40;10.43;;;9.43;;
3571;SDS011;7958;53.024;12.970;2023-05-16T02:05:07;10.30;;;9.30;;
3571;SDS011;7958;53.024;12.970;2023-05-16T02:07:34;10.47;;;8.20;;
3571;SDS011;7958;53.024;12.970;2023-05-16T02:10:00;9.43;;;8.43;;
3571;SDS011;7958;53.024;12.970;2023-05-16T02:12:28;10.90;;;9.27;;
3571;SDS011;7958;53.024;12.970;2023-05-16T02:14:55;12.17;;;8.00;;
3571;SDS011;7958;53.024;12.970;2023-05-16T02:17:24;8.70;;;7.70;;
3571;SDS011;7958;53.024;12.970;2023-05-16T02:19:52;8.63;;;7.73;;
3571;SDS011;7958;53.024;12.970;2023-05-16T02:22:19;8.87;;;7.23;;
3571;SDS011;7958;53.024;12.970;2023-05-16T02:24:46;10.63;;;7.53;;
3571;SDS011;7958;53.024;12.970;2023-05-16T02:27:13;10.10;;;8.60;;
3571;SDS011;7958;53.024;12.970;2023-05-16T02:29:40;8.27;;;7.47;;
3571;SDS011;7958;53.024;12.970;2023-05-16T02:32:06;13.40;;;8.20;;
3571;SDS011;7958;53.024;12.970;2023-05-16T02:34:35;8.83;;;7.60;;
3571;SDS011;7958;53.024;12.970;2023-05-16T02:37:02;10.80;;;7.77;;
3571;SDS011;7958;53.024;12.970;2023-05-16T02:39:30;8.80;;;7.47;;
3571;SDS011;7958;53.024;12.970;2023-05-16T02:41:57;9.80;;;7.20;;
3571;SDS011;7958;53.024;12.970;2023-05-16T02:44:23;12.50;;;8.07;;
3571;SDS011;7958;53.024;12.970;2023-05-16T02:46:49;9.20;;;8.10;;
3571;SDS011;7958;53.024;12.970;2023-05-16T02:49:16;10.40;;;8.10;;
3571;SDS011;7958;53.024;12.970;2023-05-16T02:51:44;8.53;;;7.40;;
3571;SDS011;7958;53.024;12.970;2023-05-16T02:54:11;7.73;;;6.93;;
3571;SDS011;7958;53.024;12.970;2023-05-16T02:56:38;7.57;;;6.63;;
3571;SDS011;7958;53.024;12.970;2023-05-16T02:59:06;8.30;;;7.40;;
3571;SDS011;7958;53.024;12.970;2023-05-16T03:01:33;9.90;;;7.80;;
3571;SDS011;7958;53.024;12.970;2023-05-16T03:04:00;12.20;;;7.80;;
3571;SDS011;7958;53.024;12.970;2023-05-16T03:06:27;9.57;;;8.17;;
3571;SDS011;7958;53.024;12.970;2023-05-16T03:08:56;10.43;;;7.37;;
3571;SDS011;7958;53.024;12.970;2023-05-16T03:11:24;8.63;;;7.47;;
3571;SDS011;7958;53.024;12.970;2023-05-16T03:13:53;14.00;;;7.93;;
3571;SDS011;7958;53.024;12.970;2023-05-16T03:16:19;11.80;;;9.00;;
3571;SDS011;7958;53.024;12.970;2023-05-16T03:18:45;9.07;;;7.50;;
3571;SDS011;7958;53.024;12.970;2023-05-16T03:21:12;8.53;;;7.70;;
3571;SDS011;7958;53.024;12.970;2023-05-16T03:23:39;10.73;;;8.43;;
3571;SDS011;7958;53.024;12.970;2023-05-16T03:26:07;10.07;;;7.87;;
3571;SDS011;7958;53.024;12.970;2023-05-16T03:28:33;9.60;;;8.07;;
3571;SDS011;7958;53.024;12.970;2023-05-16T03:31:00;11.70;;;8.30;;
3571;SDS011;7958;53.024;12.970;2023-05-16T03:33:29;13.40;;;9.00;;
3571;SDS011;7958;53.024;12.970;2023-05-16T03:35:56;11.97;;;9.70;;
3571;SDS011;7958;53.024;12.970;2023-05-16T03:38:23;10.13;;;8.40;;
3571;SDS011;7958;53.024;12.970;2023-05-16T03:40:49;9.50;;;8.60;;
3571;SDS011;7958;53.024;12.970;2023-05-16T03:43:17;15.07;;;9.60;;
3571;SDS011;7958;53.024;12.970;2023-05-16T03:45:44;12.60;;;8.93;;
3571;SDS011;7958;53.024;12.970;2023-05-16T03:48:11;9.97;;;8.97;;
3571;SDS011;7958;53.024;12.970;2023-05-16T03:50:37;10.03;;;8.20;;
3571;SDS011;7958;53.024;12.970;2023-05-16T03:53:05;11.23;;;9.07;;
3571;SDS011;7958;53.024;12.970;2023-05-16T03:55:32;10.33;;;8.87;;
3571;SDS011;7958;53.024;12.970;2023-05-16T03:58:00;9.40;;;8.50;;
3571;SDS011;7958;53.024;12.970;2023-05-16T04:00:28;10.80;;;9.37;;
3571;SDS011;7958;53.024;12.970;2023-05-16T04:02:58;8.83;;;7.73;;
3571;SDS011;7958;53.024;12.970;2023-05-16T04:05:25;15.47;;;10.40;;
3571;SDS011;7958;53.024;12.970;2023-05-16T04:07:51;12.90;;;9.03;;
3571;SDS011;7958;53.024;12.970;2023-05-16T04:10:18;11.40;;;9.30;;
3571;SDS011;7958;53.024;12.970;2023-05-16T04:12:45;10.07;;;8.57;;
3571;SDS011;7958;53.024;12.970;2023-05-16T04:15:12;9.70;;;8.70;;
3571;SDS011;7958;53.024;12.970;2023-05-16T04:17:40;9.57;;;8.60;;
3571;SDS011;7958;53.024;12.970;2023-05-16T04:20:06;10.10;;;8.20;;
3571;SDS011;7958;53.024;12.970;2023-05-16T04:22:33;11.60;;;8.33;;
3571;SDS011;7958;53.024;12.970;2023-05-16T04:25:00;10.67;;;8.67;;
3571;SDS011;7958;53.024;12.970;2023-05-16T04:27:27;10.73;;;9.07;;
3571;SDS011;7958;53.024;12.970;2023-05-16T04:29:54;10.10;;;8.27;;
3571;SDS011;7958;53.024;12.970;2023-05-16T04:32:21;11.30;;;8.00;;
3571;SDS011;7958;53.024;12.970;2023-05-16T04:34:49;10.90;;;8.40;;
3571;SDS011;7958;53.024;12.970;2023-05-16T04:37:17;8.80;;;7.87;;
3571;SDS011;7958;53.024;12.970;2023-05-16T04:39:43;12.17;;;9.07;;
3571;SDS011;7958;53.024;12.970;2023-05-16T04:42:10;10.97;;;8.87;;
3571;SDS011;7958;53.024;12.970;2023-05-16T04:44:37;10.50;;;7.93;;
3571;SDS011;7958;53.024;12.970;2023-05-16T04:47:04;9.30;;;7.90;;
3571;SDS011;7958;53.024;12.970;2023-05-16T04:49:32;10.13;;;7.43;;
3571;SDS011;7958;53.024;12.970;2023-05-16T04:52:00;10.23;;;7.37;;
3571;SDS011;7958;53.024;12.970;2023-05-16T04:54:27;13.10;;;8.30;;
3571;SDS011;7958;53.024;12.970;2023-05-16T04:56:54;10.77;;;7.40;;
3571;SDS011;7958;53.024;12.970;2023-05-16T04:59:21;8.87;;;6.93;;
3571;SDS011;7958;53.024;12.970;2023-05-16T05:01:48;8.17;;;7.17;;
3571;SDS011;7958;53.024;12.970;2023-05-16T05:04:15;9.40;;;7.37;;
3571;SDS011;7958;53.024;12.970;2023-05-16T05:06:42;7.87;;;7.00;;
3571;SDS011;7958;53.024;12.970;2023-05-16T05:09:10;11.07;;;7.33;;
3571;SDS011;7958;53.024;12.970;2023-05-16T05:11:37;10.53;;;7.10;;
3571;SDS011;7958;53.024;12.970;2023-05-16T05:14:03;10.07;;;6.60;;
3571;SDS011;7958;53.024;12.970;2023-05-16T05:16:31;8.77;;;7.10;;
3571;SDS011;7958;53.024;12.970;2023-05-16T05:18:58;10.33;;;7.40;;
3571;SDS011;7958;53.024;12.970;2023-05-16T05:21:26;9.63;;;7.60;;
3571;SDS011;7958;53.024;12.970;2023-05-16T05:23:54;9.90;;;6.80;;
3571;SDS011;7958;53.024;12.970;2023-05-16T05:26:22;11.13;;;7.50;;
3571;SDS011;7958;53.024;12.970;2023-05-16T05:28:50;10.03;;;6.63;;
3571;SDS011;7958;53.024;12.970;2023-05-16T05:31:16;12.53;;;6.90;;
3571;SDS011;7958;53.024;12.970;2023-05-16T05:33:43;11.87;;;6.90;;
3571;SDS011;7958;53.024;12.970;2023-05-16T05:36:10;10.43;;;6.67;;
3571;SDS011;7958;53.024;12.970;2023-05-16T05:38:37;9.63;;;6.17;;
3571;SDS011;7958;53.024;12.970;2023-05-16T05:41:05;8.93;;;6.53;;
3571;SDS011;7958;53.024;12.970;2023-05-16T05:43:33;7.87;;;6.20;;
3571;SDS011;7958;53.024;12.970;2023-05-16T05:46:01;9.53;;;6.40;;
3571;SDS011;7958;53.024;12.970;2023-05-16T05:48:27;8.87;;;6.00;;
3571;SDS011;7958;53.024;12.970;2023-05-16T05:50:54;7.93;;;5.77;;
3571;SDS011;7958;53.024;12.970;2023-05-16T05:53:22;7.30;;;5.80;;
3571;SDS011;7958;53.024;12.970;2023-05-16T05:55:49;7.10;;;6.13;;
3571;SDS011;7958;53.024;12.970;2023-05-16T05:58:16;11.20;;;5.93;;
3571;SDS011;7958;53.024;12.970;2023-05-16T06:00:45;8.60;;;6.40;;
3571;SDS011;7958;53.024;12.970;2023-05-16T06:03:12;8.10;;;5.27;;
3571;SDS011;7958;53.024;12.970;2023-05-16T06:05:38;6.93;;;6.23;;
3571;SDS011;7958;53.024;12.970;2023-05-16T06:08:05;9.83;;;5.97;;
3571;SDS011;7958;53.024;12.970;2023-05-16T06:10:31;9.33;;;6.03;;
3571;SDS011;7958;53.024;12.970;2023-05-16T06:12:58;6.87;;;5.40;;
3571;SDS011;7958;53.024;12.970;2023-05-16T06:15:25;7.50;;;5.80;;
3571;SDS011;7958;53.024;12.970;2023-05-16T06:17:54;12.03;;;6.67;;
3571;SDS011;7958;53.024;12.970;2023-05-16T06:20:22;5.90;;;5.30;;
3571;SDS011;7958;53.024;12.970;2023-05-16T06:22:49;7.83;;;5.70;;
3571;SDS011;7958;53.024;12.970;2023-05-16T06:25:16;8.40;;;5.50;;
3571;SDS011;7958;53.024;12.970;2023-05-16T06:27:43;9.10;;;5.47;;
3571;SDS011;7958;53.024;12.970;2023-05-16T06:30:10;6.90;;;5.27;;
3571;SDS011;7958;53.024;12.970;2023-05-16T06:32:37;5.43;;;4.40;;
3571;SDS011;7958;53.024;12.970;2023-05-16T06:35:06;10.80;;;5.97;;
3571;SDS011;7958;53.024;12.970;2023-05-16T06:37:34;9.10;;;5.53;;
3571;SDS011;7958;53.024;12.970;2023-05-16T06:40:00;7.77;;;5.13;;
3571;SDS011;7958;53.024;12.970;2023-05-16T06:42:27;6.17;;;5.57;;
3571;SDS011;7958;53.024;12.970;2023-05-16T06:44:54;7.00;;;4.57;;
3571;SDS011;7958;53.024;12.970;2023-05-16T06:47:21;5.77;;;4.40;;
3571;SDS011;7958;53.024;12.970;2023-05-16T06:49:49;7.20;;;5.30;;
3571;SDS011;7958;53.024;12.970;2023-05-16T06:52:17;7.80;;;4.63;;
3571;SDS011;7958;53.024;12.970;2023-05-16T06:54:46;7.90;;;4.80;;
3571;SDS011;7958;53.024;12.970;2023-05-16T06:57:13;6.43;;;4.57;;
3571;SDS011;7958;53.024;12.970;2023-05-16T06:59:40;6.63;;;4.80;;
3571;SDS011;7958;53.024;12.970;2023-05-16T07:02:06;9.27;;;5.20;;
3571;SDS011;7958;53.024;12.970;2023-05-16T07:04:34;6.60;;;5.20;;
3571;SDS011;7958;53.024;12.970;2023-05-16T07:07:02;5.27;;;4.63;;
3571;SDS011;7958;53.024;12.970;2023-05-16T07:09:30;6.07;;;4.37;;
3571;SDS011;7958;53.024;12.970;2023-05-16T07:11:56;4.40;;;4.00;;
3571;SDS011;7958;53.024;12.970;2023-05-16T07:14:24;5.77;;;4.00;;
3571;SDS011;7958;53.024;12.970;2023-05-16T07:16:50;4.17;;;3.57;;
3571;SDS011;7958;53.024;12.970;2023-05-16T07:19:17;8.80;;;5.50;;
3571;SDS011;7958;53.024;12.970;2023-05-16T07:21:45;7.00;;;4.60;;
3571;SDS011;7958;53.024;12.970;2023-05-16T07:24:11;11.57;;;6.73;;
3571;SDS011;7958;53.024;12.970;2023-05-16T07:26:40;7.30;;;5.13;;
3571;SDS011;7958;53.024;12.970;2023-05-16T07:29:06;6.23;;;3.63;;
3571;SDS011;7958;53.024;12.970;2023-05-16T07:31:32;3.40;;;3.10;;
3571;SDS011;7958;53.024;12.970;2023-05-16T07:33:59;3.90;;;3.47;;
3571;SDS011;7958;53.024;12.970;2023-05-16T07:36:26;3.47;;;3.17;;
3571;SDS011;7958;53.024;12.970;2023-05-16T07:38:55;4.87;;;3.00;;
3571;SDS011;7958;53.024;12.970;2023-05-16T07:41:23;6.00;;;2.70;;
3571;SDS011;7958;53.024;12.970;2023-05-16T07:43:52;2.93;;;2.60;;
3571;SDS011;7958;53.024;12.970;2023-05-16T07:46:19;2.23;;;2.07;;
3571;SDS011;7958;53.024;12.970;2023-05-16T07:48:45;2.60;;;2.40;;
3571;SDS011;7958;53.024;12.970;2023-05-16T07:51:12;4.30;;;2.77;;
3571;SDS011;7958;53.024;12.970;2023-05-16T07:53:38;3.43;;;2.57;;
3571;SDS011;7958;53.024;12.970;2023-05-16T07:56:06;4.40;;;3.00;;
3571;SDS011;7958;53.024;12.970;2023-05-16T07:58:33;10.10;;;3.10;;
3571;SDS011;7958;53.024;12.970;2023-05-16T08:01:02;5.30;;;2.80;;
3571;SDS011;7958;53.024;12.970;2023-05-16T08:03:28;3.27;;;2.30;;
3571;SDS011;7958;53.024;12.970;2023-05-16T08:05:55;6.10;;;2.50;;
3571;SDS011;7958;53.024;12.970;2023-05-16T08:08:23;5.70;;;2.50;;
3571;SDS011;7958;53.024;12.970;2023-05-16T08:10:49;5.07;;;2.73;;
3571;SDS011;7958;53.024;12.970;2023-05-16T08:13:18;3.77;;;1.87;;
3571;SDS011;7958;53.024;12.970;2023-05-16T08:15:44;3.10;;;2.10;;
3571;SDS011;7958;53.024;12.970;2023-05-16T08:18:13;2.10;;;1.70;;
3571;SDS011;7958;53.024;12.970;2023-05-16T08:20:40;7.30;;;1.70;;
3571;SDS011;7958;53.024;12.970;2023-05-16T08:23:07;1.63;;;1.53;;
3571;SDS011;7958;53.024;12.970;2023-05-16T08:25:34;5.13;;;2.00;;
3571;SDS011;7958;53.024;12.970;2023-05-16T08:28:01;2.60;;;1.40;;
3571;SDS011;7958;53.024;12.970;2023-05-16T08:30:27;6.00;;;2.07;;
3571;SDS011;7958;53.024;12.970;2023-05-16T08:32:54;5.53;;;1.73;;
3571;SDS011;7958;53.024;12.970;2023-05-16T08:35:22;4.33;;;1.70;;
3571;SDS011;7958;53.024;12.970;2023-05-16T08:37:48;2.20;;;1.40;;
3571;SDS011;7958;53.024;12.970;2023-05-16T08:40:15;2.20;;;1.50;;
3571;SDS011;7958;53.024;12.970;2023-05-16T08:42:41;4.57;;;1.43;;
3571;SDS011;7958;53.024;12.970;2023-05-16T08:45:08;5.30;;;1.83;;
3571;SDS011;7958;53.024;12.970;2023-05-16T08:47:36;3.17;;;1.80;;
3571;SDS011;7958;53.024;12.970;2023-05-16T08:50:06;11.40;;;1.80;;
3571;SDS011;7958;53.024;12.970;2023-05-16T08:52:37;6.53;;;1.90;;
3571;SDS011;7958;53.024;12.970;2023-05-16T08:55:04;4.10;;;1.50;;
3571;SDS011;7958;53.024;12.970;2023-05-16T08:57:33;5.50;;;2.10;;
3571;SDS011;7958;53.024;12.970;2023-05-16T09:00:01;3.47;;;1.87;;
3571;SDS011;7958;53.024;12.970;2023-05-16T09:02:35;7.10;;;1.73;;
3571;SDS011;7958;53.024;12.970;2023-05-16T09:05:03;2.97;;;1.67;;
3571;SDS011;7958;53.024;12.970;2023-05-16T09:07:30;6.40;;;1.83;;
3571;SDS011;7958;53.024;12.970;2023-05-16T09:09:58;8.10;;;2.10;;
3571;SDS011;7958;53.024;12.970;2023-05-16T09:12:25;4.13;;;1.90;;
3571;SDS011;7958;53.024;12.970;2023-05-16T09:14:53;4.20;;;2.10;;
3571;SDS011;7958;53.024;12.970;2023-05-16T09:17:20;6.77;;;1.70;;
3571;SDS011;7958;53.024;12.970;2023-05-16T09:19:48;4.30;;;1.43;;
3571;SDS011;7958;53.024;12.970;2023-05-16T09:22:16;7.53;;;1.80;;
3571;SDS011;7958;53.024;12.970;2023-05-16T09:24:44;4.50;;;1.93;;
3571;SDS011;7958;53.024;12.970;2023-05-16T09:27:14;4.30;;;1.73;;
3571;SDS011;7958;53.024;12.970;2023-05-16T09:29:41;4.87;;;1.87;;
3571;SDS011;7958;53.024;12.970;2023-05-16T09:32:08;7.77;;;4.17;;
3571;SDS011;7958;53.024;12.970;2023-05-16T09:34:40;7.00;;;2.90;;
3571;SDS011;7958;53.024;12.970;2023-05-16T09:37:08;12.53;;;5.60;;
3571;SDS011;7958;53.024;12.970;2023-05-16T09:39:36;7.03;;;2.20;;
3571;SDS011;7958;53.024;12.970;2023-05-16T09:42:06;8.27;;;2.03;;
3571;SDS011;7958;53.024;12.970;2023-05-16T09:44:38;6.57;;;2.23;;
3571;SDS011;7958;53.024;12.970;2023-05-16T09:47:05;7.07;;;1.60;;
3571;SDS011;7958;53.024;12.970;2023-05-16T09:49:32;7.90;;;1.90;;
3571;SDS011;7958;53.024;12.970;2023-05-16T09:51:59;7.27;;;1.97;;
3571;SDS011;7958;53.024;12.970;2023-05-16T09:54:30;13.57;;;3.30;;
3571;SDS011;7958;53.024;12.970;2023-05-16T09:56:57;9.33;;;1.90;;
3571;SDS011;7958;53.024;12.970;2023-05-16T09:59:25;10.80;;;2.70;;
3571;SDS011;7958;53.024;12.970;2023-05-16T10:01:56;9.30;;;2.07;;
3571;SDS011;7958;53.024;12.970;2023-05-16T10:04:24;7.47;;;2.33;;
3571;SDS011;7958;53.024;12.970;2023-05-16T10:06:52;8.80;;;1.70;;
3571;SDS011;7958;53.024;12.970;2023-05-16T10:09:21;5.90;;;1.80;;
3571;SDS011;7958;53.024;12.970;2023-05-16T10:11:48;7.37;;;1.67;;
3571;SDS011;7958;53.024;12.970;2023-05-16T10:14:18;6.97;;;1.60;;
3571;SDS011;7958;53.024;12.970;2023-05-16T10:16:46;4.07;;;1.60;;
3571;SDS011;7958;53.024;12.970;2023-05-16T10:19:16;8.90;;;1.70;;
3571;SDS011;7958;53.024;12.970;2023-05-16T10:21:47;10.60;;;2.20;;
3571;SDS011;7958;53.024;12.970;2023-05-16T10:24:20;12.33;;;1.90;;
3571;SDS011;7958;53.024;12.970;2023-05-16T10:26:49;5.73;;;1.80;;
3571;SDS011;7958;53.024;12.970;2023-05-16T10:29:17;5.20;;;1.57;;
3571;SDS011;7958;53.024;12.970;2023-05-16T10:31:45;8.27;;;2.00;;
3571;SDS011;7958;53.024;12.970;2023-05-16T10:34:11;12.40;;;2.10;;
3571;SDS011;7958;53.024;12.970;2023-05-16T10:36:42;5.13;;;1.80;;
3571;SDS011;7958;53.024;12.970;2023-05-16T10:39:09;7.50;;;1.80;;
3571;SDS011;7958;53.024;12.970;2023-05-16T10:41:36;8.70;;;2.50;;
3571;SDS011;7958;53.024;12.970;2023-05-16T10:44:06;9.47;;;2.60;;
3571;SDS011;7958;53.024;12.970;2023-05-16T10:46:38;7.00;;;1.97;;
3571;SDS011;7958;53.024;12.970;2023-05-16T10:49:18;8.87;;;2.20;;
3571;SDS011;7958;53.024;12.970;2023-05-16T10:51:47;5.30;;;2.17;;
3571;SDS011;7958;53.024;12.970;2023-05-16T10:54:32;6.03;;;2.20;;
3571;SDS011;7958;53.024;12.970;2023-05-16T10:57:02;7.93;;;1.90;;
3571;SDS011;7958;53.024;12.970;2023-05-16T10:59:30;5.83;;;2.10;;
3571;SDS011;7958;53.024;12.970;2023-05-16T11:02:20;9.50;;;2.13;;
3571;SDS011;7958;53.024;12.970;2023-05-16T11:04:48;9.23;;;2.00;;
3571;SDS011;7958;53.024;12.970;2023-05-16T11:07:18;8.33;;;1.80;;
3571;SDS011;7958;53.024;12.970;2023-05-16T11:09:52;8.50;;;2.13;;
3571;SDS011;7958;53.024;12.970;2023-05-16T11:12:34;8.00;;;2.00;;
3571;SDS011;7958;53.024;12.970;2023-05-16T11:15:17;9.80;;;2.40;;
3571;SDS011;7958;53.024;12.970;2023-05-16T11:17:45;4.40;;;1.47;;
3571;SDS011;7958;53.024;12.970;2023-05-16T11:20:23;4.10;;;1.47;;
3571;SDS011;7958;53.024;12.970;2023-05-16T11:22:55;5.23;;;1.80;;
3571;SDS011;7958;53.024;12.970;2023-05-16T11:25:46;10.50;;;2.33;;
3571;SDS011;7958;53.024;12.970;2023-05-16T11:28:14;6.30;;;1.60;;
3571;SDS011;7958;53.024;12.970;2023-05-16T11:30:43;5.30;;;1.93;;
3571;SDS011;7958;53.024;12.970;2023-05-16T11:33:11;5.57;;;1.90;;
3571;SDS011;7958;53.024;12.970;2023-05-16T11:35:38;5.73;;;2.00;;
3571;SDS011;7958;53.024;12.970;2023-05-16T11:38:10;5.57;;;2.37;;
3571;SDS011;7958;53.024;12.970;2023-05-16T11:40:40;7.57;;;1.73;;
3571;SDS011;7958;53.024;12.970;2023-05-16T11:43:08;5.27;;;1.90;;
3571;SDS011;7958;53.024;12.970;2023-05-16T11:45:35;6.20;;;1.70;;
3571;SDS011;7958;53.024;12.970;2023-05-16T11:48:01;7.80;;;2.23;;
3571;SDS011;7958;53.024;12.970;2023-05-16T11:50:28;4.90;;;1.57;;
3571;SDS011;7958;53.024;12.970;2023-05-16T11:52:55;8.73;;;1.63;;
3571;SDS011;7958;53.024;12.970;2023-05-16T11:55:24;5.23;;;1.70;;
3571;SDS011;7958;53.024;12.970;2023-05-16T11:57:51;3.40;;;1.70;;
3571;SDS011;7958;53.024;12.970;2023-05-16T12:00:19;5.07;;;2.03;;
3571;SDS011;7958;53.024;12.970;2023-05-16T12:02:48;6.53;;;3.83;;
3571;SDS011;7958;53.024;12.970;2023-05-16T12:05:15;5.57;;;1.63;;
3571;SDS011;7958;53.024;12.970;2023-05-16T12:07:42;6.93;;;1.87;;
3571;SDS011;7958;53.024;12.970;2023-05-16T12:10:10;5.40;;;1.90;;
3571;SDS011;7958;53.024;12.970;2023-05-16T12:12:39;4.30;;;1.67;;
3571;SDS011;7958;53.024;12.970;2023-05-16T12:15:08;4.53;;;1.63;;
3571;SDS011;7958;53.024;12.970;2023-05-16T12:17:35;5.20;;;1.40;;
3571;SDS011;7958;53.024;12.970;2023-05-16T12:20:02;3.97;;;1.63;;
3571;SDS011;7958;53.024;12.970;2023-05-16T12:22:30;4.63;;;1.70;;
3571;SDS011;7958;53.024;12.970;2023-05-16T12:24:57;3.70;;;1.30;;
3571;SDS011;7958;53.024;12.970;2023-05-16T12:27:24;3.97;;;1.80;;
3571;SDS011;7958;53.024;12.970;2023-05-16T12:29:53;5.10;;;1.57;;
3571;SDS011;7958;53.024;12.970;2023-05-16T12:32:23;6.30;;;1.60;;
3571;SDS011;7958;53.024;12.970;2023-05-16T12:34:50;5.70;;;1.63;;
3571;SDS011;7958;53.024;12.970;2023-05-16T12:37:17;6.13;;;1.90;;
3571;SDS011;7958;53.024;12.970;2023-05-16T12:39:44;2.40;;;1.40;;
3571;SDS011;7958;53.024;12.970;2023-05-16T12:42:12;2.97;;;1.33;;
3571;SDS011;7958;53.024;12.970;2023-05-16T12:44:39;3.53;;;1.53;;
3571;SDS011;7958;53.024;12.970;2023-05-16T12:47:11;4.33;;;1.30;;
3571;SDS011;7958;53.024;12.970;2023-05-16T12:49:42;5.27;;;2.13;;
3571;SDS011;7958;53.024;12.970;2023-05-16T12:52:09;7.27;;;1.60;;
3571;SDS011;7958;53.024;12.970;2023-05-16T12:54:44;6.23;;;1.57;;
3571;SDS011;7958;53.024;12.970;2023-05-16T12:57:10;8.33;;;1.73;;
3571;SDS011;7958;53.024;12.970;2023-05-16T12:59:37;5.43;;;1.67;;
3571;SDS011;7958;53.024;12.970;2023-05-16T13:02:03;3.20;;;1.43;;
3571;SDS011;7958;53.024;12.970;2023-05-16T13:04:31;4.73;;;1.40;;
3571;SDS011;7958;53.024;12.970;2023-05-16T13:06:58;9.37;;;2.13;;
3571;SDS011;7958;53.024;12.970;2023-05-16T13:09:24;12.50;;;2.37;;
3571;SDS011;7958;53.024;12.970;2023-05-16T13:11:51;6.10;;;1.70;;
3571;SDS011;7958;53.024;12.970;2023-05-16T13:14:18;24.47;;;4.30;;
3571;SDS011;7958;53.024;12.970;2023-05-16T13:16:45;17.63;;;3.13;;
3571;SDS011;7958;53.024;12.970;2023-05-16T13:19:11;12.47;;;2.57;;
3571;SDS011;7958;53.024;12.970;2023-05-16T13:21:40;7.80;;;3.13;;
3571;SDS011;7958;53.024;12.970;2023-05-16T13:24:07;36.00;;;15.10;;
3571;SDS011;7958;53.024;12.970;2023-05-16T13:26:33;5.90;;;1.50;;
3571;SDS011;7958;53.024;12.970;2023-05-16T13:29:00;10.57;;;1.70;;
3571;SDS011;7958;53.024;12.970;2023-05-16T13:31:26;9.27;;;1.90;;
3571;SDS011;7958;53.024;12.970;2023-05-16T13:33:52;3.17;;;1.10;;
3571;SDS011;7958;53.024;12.970;2023-05-16T13:36:19;3.73;;;1.20;;
3571;SDS011;7958;53.024;12.970;2023-05-16T13:38:47;3.13;;;1.30;;
3571;SDS011;7958;53.024;12.970;2023-05-16T13:41:13;2.60;;;1.20;;
3571;SDS011;7958;53.024;12.970;2023-05-16T13:43:40;4.07;;;1.33;;
3571;SDS011;7958;53.024;12.970;2023-05-16T13:46:06;3.00;;;1.47;;
3571;SDS011;7958;53.024;12.970;2023-05-16T13:48:33;5.80;;;3.17;;
3571;SDS011;7958;53.024;12.970;2023-05-16T13:50:59;11.27;;;2.97;;
3571;SDS011;7958;53.024;12.970;2023-05-16T13:53:26;32.07;;;13.03;;
3571;SDS011;7958;53.024;12.970;2023-05-16T13:55:54;5.20;;;1.63;;
3571;SDS011;7958;53.024;12.970;2023-05-16T13:58:21;19.90;;;9.40;;
3571;SDS011;7958;53.024;12.970;2023-05-16T14:00:49;7.60;;;1.63;;
3571;SDS011;7958;53.024;12.970;2023-05-16T14:03:16;6.67;;;3.07;;
3571;SDS011;7958;53.024;12.970;2023-05-16T14:05:42;8.40;;;2.30;;
3571;SDS011;7958;53.024;12.970;2023-05-16T14:08:09;4.13;;;2.00;;
3571;SDS011;7958;53.024;12.970;2023-05-16T14:10:35;5.27;;;1.30;;
3571;SDS011;7958;53.024;12.970;2023-05-16T14:13:03;5.60;;;1.10;;
3571;SDS011;7958;53.024;12.970;2023-05-16T14:15:30;4.60;;;1.53;;
3571;SDS011;7958;53.024;12.970;2023-05-16T14:17:56;2.33;;;1.20;;
3571;SDS011;7958;53.024;12.970;2023-05-16T14:20:23;1.73;;;1.17;;
3571;SDS011;7958;53.024;12.970;2023-05-16T14:22:49;6.00;;;1.30;;
3571;SDS011;7958;53.024;12.970;2023-05-16T14:25:16;2.00;;;1.23;;
3571;SDS011;7958;53.024;12.970;2023-05-16T14:27:45;4.40;;;1.17;;
3571;SDS011;7958;53.024;12.970;2023-05-16T14:30:13;4.63;;;1.10;;
3571;SDS011;7958;53.024;12.970;2023-05-16T14:32:40;1.87;;;1.17;;
3571;SDS011;7958;53.024;12.970;2023-05-16T14:35:06;4.47;;;1.30;;
3571;SDS011;7958;53.024;12.970;2023-05-16T14:37:34;1.83;;;1.10;;
3571;SDS011;7958;53.024;12.970;2023-05-16T14:40:01;3.80;;;1.10;;
3571;SDS011;7958;53.024;12.970;2023-05-16T14:42:29;3.07;;;1.87;;
3571;SDS011;7958;53.024;12.970;2023-05-16T14:44:56;6.03;;;1.50;;
3571;SDS011;7958;53.024;12.970;2023-05-16T14:47:24;3.87;;;1.10;;
3571;SDS011;7958;53.024;12.970;2023-05-16T14:49:51;2.40;;;1.00;;
3571;SDS011;7958;53.024;12.970;2023-05-16T14:52:18;3.57;;;1.57;;
3571;SDS011;7958;53.024;12.970;2023-05-16T14:54:45;2.90;;;1.17;;
3571;SDS011;7958;53.024;12.970;2023-05-16T14:57:12;3.77;;;1.77;;
3571;SDS011;7958;53.024;12.970;2023-05-16T14:59:38;7.90;;;2.70;;
3571;SDS011;7958;53.024;12.970;2023-05-16T15:02:05;7.90;;;1.50;;